sensor_id;sensor_type;location;lat;lon;timestamp;temperature;humidity
15239;DHT22;7722;53.274;9.500;2022-10-17T00:01:26;11.20;99.90
15239;DHT22;7722;53.274;9.500;2022-10-17T00:03:53;11.30;99.90
15239;DHT22;7722;53.274;9.500;2022-10-17T00:06:20;11.30;99.90
15239;DHT22;7722;53.274;9.500;2022-10-17T00:08:48;11.30;99.90
15239;DHT22;7722;53.274;9.500;2022-10-17T00:11:17;11.40;99.90
15239;DHT22;7722;53.274;9.500;2022-10-17T00:13:44;11.40;99.90
15239;DHT22;7722;53.274;9.500;2022-10-17T00:16:11;11.50;99.90
15239;DHT22;7722;53.274;9.500;2022-10-17T00:18:38;11.50;99.90
15239;DHT22;7722;53.274;9.500;2022-10-17T00:21:05;11.50;99.90
15239;DHT22;7722;53.274;9.500;2022-10-17T00:23:32;11.50;99.90
15239;DHT22;7722;53.274;9.500;2022-10-17T00:26:03;11.50;99.90
15239;DHT22;7722;53.274;9.500;2022-10-17T00:28:30;11.60;99.90
15239;DHT22;7722;53.274;9.500;2022-10-17T00:30:58;11.60;99.90
15239;DHT22;7722;53.274;9.500;2022-10-17T00:33:26;11.60;99.90
15239;DHT22;7722;53.274;9.500;2022-10-17T00:36:02;11.60;99.90
15239;DHT22;7722;53.274;9.500;2022-10-17T00:38:29;11.60;99.90
15239;DHT22;7722;53.274;9.500;2022-10-17T00:40:56;11.50;99.90
15239;DHT22;7722;53.274;9.500;2022-10-17T00:43:25;11.60;99.90
15239;DHT22;7722;53.274;9.500;2022-10-17T00:45:53;11.60;99.90
15239;DHT22;7722;53.274;9.500;2022-10-17T00:48:21;11.60;99.90
15239;DHT22;7722;53.274;9.500;2022-10-17T00:50:50;11.60;99.90
15239;DHT22;7722;53.274;9.500;2022-10-17T00:53:17;11.60;99.90
15239;DHT22;7722;53.274;9.500;2022-10-17T00:55:48;11.70;99.90
15239;DHT22;7722;53.274;9.500;2022-10-17T00:58:16;11.70;99.90
15239;DHT22;7722;53.274;9.500;2022-10-17T01:00:46;11.70;99.90
15239;DHT22;7722;53.274;9.500;2022-10-17T01:03:14;11.70;99.90
15239;DHT22;7722;53.274;9.500;2022-10-17T01:05:41;11.80;99.90
15239;DHT22;7722;53.274;9.500;2022-10-17T01:08:09;11.80;99.90
15239;DHT22;7722;53.274;9.500;2022-10-17T01:10:44;11.80;99.90
15239;DHT22;7722;53.274;9.500;2022-10-17T01:13:18;11.80;99.90
15239;DHT22;7722;53.274;9.500;2022-10-17T01:15:55;11.80;99.90
15239;DHT22;7722;53.274;9.500;2022-10-17T01:18:35;11.90;99.90
15239;DHT22;7722;53.274;9.500;2022-10-17T01:21:26;11.90;99.90
15239;DHT22;7722;53.274;9.500;2022-10-17T01:24:28;12.00;99.90
15239;DHT22;7722;53.274;9.500;2022-10-17T01:27:23;12.00;99.90
15239;DHT22;7722;53.274;9.500;2022-10-17T01:30:00;11.90;99.90
15239;DHT22;7722;53.274;9.500;2022-10-17T01:32:37;12.00;99.90
15239;DHT22;7722;53.274;9.500;2022-10-17T01:35:10;12.00;99.90
15239;DHT22;7722;53.274;9.500;2022-10-17T01:37:44;12.10;99.90
15239;DHT22;7722;53.274;9.500;2022-10-17T01:40:16;12.10;99.90
15239;DHT22;7722;53.274;9.500;2022-10-17T01:42:52;12.10;99.90
15239;DHT22;7722;53.274;9.500;2022-10-17T01:45:26;12.10;99.90
15239;DHT22;7722;53.274;9.500;2022-10-17T01:47:58;12.20;99.90
15239;DHT22;7722;53.274;9.500;2022-10-17T01:50:31;12.20;99.90
15239;DHT22;7722;53.274;9.500;2022-10-17T01:53:02;12.20;99.90
15239;DHT22;7722;53.274;9.500;2022-10-17T01:55:33;12.20;99.90
15239;DHT22;7722;53.274;9.500;2022-10-17T01:58:04;12.20;99.90
15239;DHT22;7722;53.274;9.500;2022-10-17T02:00:33;12.20;99.90
15239;DHT22;7722;53.274;9.500;2022-10-17T02:03:06;12.20;99.90
15239;DHT22;7722;53.274;9.500;2022-10-17T02:05:36;12.20;99.90
15239;DHT22;7722;53.274;9.500;2022-10-17T02:08:04;12.20;99.90
15239;DHT22;7722;53.274;9.500;2022-10-17T02:10:36;12.20;99.90
15239;DHT22;7722;53.274;9.500;2022-10-17T02:13:08;12.20;99.90
15239;DHT22;7722;53.274;9.500;2022-10-17T02:15:59;12.20;99.90
15239;DHT22;7722;53.274;9.500;2022-10-17T02:18:51;12.20;99.90
15239;DHT22;7722;53.274;9.500;2022-10-17T02:21:29;12.20;99.90
15239;DHT22;7722;53.274;9.500;2022-10-17T02:24:06;12.20;99.90
15239;DHT22;7722;53.274;9.500;2022-10-17T02:26:40;12.20;99.90
15239;DHT22;7722;53.274;9.500;2022-10-17T02:29:14;12.20;99.90
15239;DHT22;7722;53.274;9.500;2022-10-17T02:31:45;12.20;99.90
15239;DHT22;7722;53.274;9.500;2022-10-17T02:34:16;12.20;99.90
15239;DHT22;7722;53.274;9.500;2022-10-17T02:36:48;12.20;99.90
15239;DHT22;7722;53.274;9.500;2022-10-17T02:39:18;12.10;99.90
15239;DHT22;7722;53.274;9.500;2022-10-17T02:41:47;12.10;99.90
15239;DHT22;7722;53.274;9.500;2022-10-17T02:44:15;12.00;99.90
15239;DHT22;7722;53.274;9.500;2022-10-17T02:46:44;11.90;99.90
15239;DHT22;7722;53.274;9.500;2022-10-17T02:49:17;11.90;99.90
15239;DHT22;7722;53.274;9.500;2022-10-17T02:51:51;11.80;99.90
15239;DHT22;7722;53.274;9.500;2022-10-17T02:54:26;11.70;99.90
15239;DHT22;7722;53.274;9.500;2022-10-17T02:57:01;11.60;99.90
15239;DHT22;7722;53.274;9.500;2022-10-17T02:59:32;11.60;99.90
15239;DHT22;7722;53.274;9.500;2022-10-17T03:02:02;11.60;99.90
15239;DHT22;7722;53.274;9.500;2022-10-17T03:04:30;11.50;99.90
15239;DHT22;7722;53.274;9.500;2022-10-17T03:06:57;11.50;99.90
15239;DHT22;7722;53.274;9.500;2022-10-17T03:09:25;11.50;99.90
15239;DHT22;7722;53.274;9.500;2022-10-17T03:11:52;11.40;99.90
15239;DHT22;7722;53.274;9.500;2022-10-17T03:14:19;11.40;99.90
15239;DHT22;7722;53.274;9.500;2022-10-17T03:16:46;11.40;99.90
15239;DHT22;7722;53.274;9.500;2022-10-17T03:19:13;11.40;99.90
15239;DHT22;7722;53.274;9.500;2022-10-17T03:21:41;11.40;99.90
15239;DHT22;7722;53.274;9.500;2022-10-17T03:24:08;11.30;99.90
15239;DHT22;7722;53.274;9.500;2022-10-17T03:26:35;11.30;99.90
15239;DHT22;7722;53.274;9.500;2022-10-17T03:29:02;11.30;99.90
15239;DHT22;7722;53.274;9.500;2022-10-17T03:31:30;11.30;99.90
15239;DHT22;7722;53.274;9.500;2022-10-17T03:33:56;11.20;99.90
15239;DHT22;7722;53.274;9.500;2022-10-17T03:36:23;11.20;99.90
15239;DHT22;7722;53.274;9.500;2022-10-17T03:38:54;11.20;99.90
15239;DHT22;7722;53.274;9.500;2022-10-17T03:41:21;11.20;99.90
15239;DHT22;7722;53.274;9.500;2022-10-17T03:43:48;11.10;99.90
15239;DHT22;7722;53.274;9.500;2022-10-17T03:46:15;11.10;99.90
15239;DHT22;7722;53.274;9.500;2022-10-17T03:48:42;11.10;99.90
15239;DHT22;7722;53.274;9.500;2022-10-17T03:51:09;11.00;99.90
15239;DHT22;7722;53.274;9.500;2022-10-17T03:53:36;11.00;99.90
15239;DHT22;7722;53.274;9.500;2022-10-17T03:56:12;11.00;99.90
15239;DHT22;7722;53.274;9.500;2022-10-17T03:58:40;11.00;99.90
15239;DHT22;7722;53.274;9.500;2022-10-17T04:01:10;11.10;99.90
15239;DHT22;7722;53.274;9.500;2022-10-17T04:03:37;11.00;99.90
15239;DHT22;7722;53.274;9.500;2022-10-17T04:06:04;11.00;99.90
15239;DHT22;7722;53.274;9.500;2022-10-17T04:08:32;11.00;99.90
15239;DHT22;7722;53.274;9.500;2022-10-17T04:10:59;11.00;99.90
15239;DHT22;7722;53.274;9.500;2022-10-17T04:13:28;11.00;99.90
15239;DHT22;7722;53.274;9.500;2022-10-17T04:15:57;11.00;99.90
15239;DHT22;7722;53.274;9.500;2022-10-17T04:18:24;10.90;99.90
15239;DHT22;7722;53.274;9.500;2022-10-17T04:20:51;10.90;99.90
15239;DHT22;7722;53.274;9.500;2022-10-17T04:23:19;10.90;99.90
15239;DHT22;7722;53.274;9.500;2022-10-17T04:25:46;10.80;99.90
15239;DHT22;7722;53.274;9.500;2022-10-17T04:28:13;10.80;99.90
15239;DHT22;7722;53.274;9.500;2022-10-17T04:30:41;10.80;99.90
15239;DHT22;7722;53.274;9.500;2022-10-17T04:33:08;10.80;99.90
15239;DHT22;7722;53.274;9.500;2022-10-17T04:35:35;10.80;99.90
15239;DHT22;7722;53.274;9.500;2022-10-17T04:38:02;10.90;99.90
15239;DHT22;7722;53.274;9.500;2022-10-17T04:40:29;10.90;99.90
15239;DHT22;7722;53.274;9.500;2022-10-17T04:42:56;10.80;99.90
15239;DHT22;7722;53.274;9.500;2022-10-17T04:45:23;10.90;99.90
15239;DHT22;7722;53.274;9.500;2022-10-17T04:47:51;10.80;99.90
15239;DHT22;7722;53.274;9.500;2022-10-17T04:50:18;10.80;99.90
15239;DHT22;7722;53.274;9.500;2022-10-17T04:52:45;10.80;99.90
15239;DHT22;7722;53.274;9.500;2022-10-17T04:55:12;10.90;99.90
15239;DHT22;7722;53.274;9.500;2022-10-17T04:57:39;10.80;99.90
15239;DHT22;7722;53.274;9.500;2022-10-17T05:00:07;10.90;99.90
15239;DHT22;7722;53.274;9.500;2022-10-17T05:02:35;10.90;99.90
15239;DHT22;7722;53.274;9.500;2022-10-17T05:05:03;10.80;99.90
15239;DHT22;7722;53.274;9.500;2022-10-17T05:07:30;10.90;99.90
15239;DHT22;7722;53.274;9.500;2022-10-17T05:09:58;11.00;99.90
15239;DHT22;7722;53.274;9.500;2022-10-17T05:12:25;11.10;99.90
15239;DHT22;7722;53.274;9.500;2022-10-17T05:14:52;11.10;99.90
15239;DHT22;7722;53.274;9.500;2022-10-17T05:17:19;11.20;99.90
15239;DHT22;7722;53.274;9.500;2022-10-17T05:19:46;11.30;99.90
15239;DHT22;7722;53.274;9.500;2022-10-17T05:22:14;11.40;99.90
15239;DHT22;7722;53.274;9.500;2022-10-17T05:24:41;11.40;99.90
15239;DHT22;7722;53.274;9.500;2022-10-17T05:27:08;11.50;99.90
15239;DHT22;7722;53.274;9.500;2022-10-17T05:29:35;11.50;99.90
15239;DHT22;7722;53.274;9.500;2022-10-17T05:32:02;11.70;99.90
15239;DHT22;7722;53.274;9.500;2022-10-17T05:34:30;11.70;99.90
15239;DHT22;7722;53.274;9.500;2022-10-17T05:36:59;11.70;99.90
15239;DHT22;7722;53.274;9.500;2022-10-17T05:39:27;11.60;99.90
15239;DHT22;7722;53.274;9.500;2022-10-17T05:41:54;11.70;99.90
15239;DHT22;7722;53.274;9.500;2022-10-17T05:44:21;11.60;99.90
15239;DHT22;7722;53.274;9.500;2022-10-17T05:46:48;11.70;99.90
15239;DHT22;7722;53.274;9.500;2022-10-17T05:49:15;11.60;99.90
15239;DHT22;7722;53.274;9.500;2022-10-17T05:51:42;11.60;99.90
15239;DHT22;7722;53.274;9.500;2022-10-17T05:54:09;11.60;99.90
15239;DHT22;7722;53.274;9.500;2022-10-17T05:56:38;11.70;99.90
15239;DHT22;7722;53.274;9.500;2022-10-17T05:59:05;11.70;99.90
15239;DHT22;7722;53.274;9.500;2022-10-17T06:01:32;11.70;99.90
15239;DHT22;7722;53.274;9.500;2022-10-17T06:03:59;11.70;99.90
15239;DHT22;7722;53.274;9.500;2022-10-17T06:06:26;11.70;99.90
15239;DHT22;7722;53.274;9.500;2022-10-17T06:08:53;11.70;99.90
15239;DHT22;7722;53.274;9.500;2022-10-17T06:11:20;11.70;99.90
15239;DHT22;7722;53.274;9.500;2022-10-17T06:13:49;11.70;99.90
15239;DHT22;7722;53.274;9.500;2022-10-17T06:16:15;11.80;99.90
15239;DHT22;7722;53.274;9.500;2022-10-17T06:18:42;11.80;99.90
15239;DHT22;7722;53.274;9.500;2022-10-17T06:21:11;11.80;99.90
15239;DHT22;7722;53.274;9.500;2022-10-17T06:23:38;11.80;99.90
15239;DHT22;7722;53.274;9.500;2022-10-17T06:26:06;11.90;99.90
15239;DHT22;7722;53.274;9.500;2022-10-17T06:28:33;11.90;99.90
15239;DHT22;7722;53.274;9.500;2022-10-17T06:31:05;12.00;99.90
15239;DHT22;7722;53.274;9.500;2022-10-17T06:33:32;12.10;99.90
15239;DHT22;7722;53.274;9.500;2022-10-17T06:35:59;12.10;99.90
15239;DHT22;7722;53.274;9.500;2022-10-17T06:38:26;12.30;99.90
15239;DHT22;7722;53.274;9.500;2022-10-17T06:40:53;12.30;99.90
15239;DHT22;7722;53.274;9.500;2022-10-17T06:43:22;12.40;99.90
15239;DHT22;7722;53.274;9.500;2022-10-17T06:45:49;12.40;99.90
15239;DHT22;7722;53.274;9.500;2022-10-17T06:48:17;12.50;99.90
15239;DHT22;7722;53.274;9.500;2022-10-17T06:50:44;12.60;99.90
15239;DHT22;7722;53.274;9.500;2022-10-17T06:53:12;12.70;99.90
15239;DHT22;7722;53.274;9.500;2022-10-17T06:55:39;12.80;99.90
15239;DHT22;7722;53.274;9.500;2022-10-17T06:58:07;12.90;99.90
15239;DHT22;7722;53.274;9.500;2022-10-17T07:00:34;13.00;99.90
15239;DHT22;7722;53.274;9.500;2022-10-17T07:03:01;13.10;99.90
15239;DHT22;7722;53.274;9.500;2022-10-17T07:05:30;13.20;99.90
15239;DHT22;7722;53.274;9.500;2022-10-17T07:07:56;13.30;99.90
15239;DHT22;7722;53.274;9.500;2022-10-17T07:10:24;13.40;99.90
15239;DHT22;7722;53.274;9.500;2022-10-17T07:12:51;13.50;99.90
15239;DHT22;7722;53.274;9.500;2022-10-17T07:15:18;13.50;99.90
15239;DHT22;7722;53.274;9.500;2022-10-17T07:17:47;13.60;99.90
15239;DHT22;7722;53.274;9.500;2022-10-17T07:20:15;13.60;99.90
15239;DHT22;7722;53.274;9.500;2022-10-17T07:22:43;13.70;99.90
15239;DHT22;7722;53.274;9.500;2022-10-17T07:25:10;13.70;99.90
15239;DHT22;7722;53.274;9.500;2022-10-17T07:27:37;13.80;99.90
15239;DHT22;7722;53.274;9.500;2022-10-17T07:30:05;14.00;99.90
15239;DHT22;7722;53.274;9.500;2022-10-17T07:32:32;14.10;99.90
15239;DHT22;7722;53.274;9.500;2022-10-17T07:34:59;14.30;99.90
15239;DHT22;7722;53.274;9.500;2022-10-17T07:37:27;14.40;99.90
15239;DHT22;7722;53.274;9.500;2022-10-17T07:39:55;14.70;99.90
15239;DHT22;7722;53.274;9.500;2022-10-17T07:42:23;14.80;99.90
15239;DHT22;7722;53.274;9.500;2022-10-17T07:44:50;14.90;99.90
15239;DHT22;7722;53.274;9.500;2022-10-17T07:47:16;15.00;99.90
15239;DHT22;7722;53.274;9.500;2022-10-17T07:49:43;15.10;99.90
15239;DHT22;7722;53.274;9.500;2022-10-17T07:52:11;15.20;99.90
15239;DHT22;7722;53.274;9.500;2022-10-17T07:54:38;15.20;99.90
15239;DHT22;7722;53.274;9.500;2022-10-17T07:57:07;15.30;99.90
15239;DHT22;7722;53.274;9.500;2022-10-17T07:59:35;15.40;99.90
15239;DHT22;7722;53.274;9.500;2022-10-17T08:02:02;15.50;99.90
15239;DHT22;7722;53.274;9.500;2022-10-17T08:04:29;15.60;99.90
15239;DHT22;7722;53.274;9.500;2022-10-17T08:06:56;15.60;99.90
15239;DHT22;7722;53.274;9.500;2022-10-17T08:09:23;15.70;99.90
15239;DHT22;7722;53.274;9.500;2022-10-17T08:11:50;15.90;99.90
15239;DHT22;7722;53.274;9.500;2022-10-17T08:14:20;15.90;99.90
15239;DHT22;7722;53.274;9.500;2022-10-17T08:16:46;15.90;99.90
15239;DHT22;7722;53.274;9.500;2022-10-17T08:19:14;16.10;99.90
15239;DHT22;7722;53.274;9.500;2022-10-17T08:21:41;16.20;99.90
15239;DHT22;7722;53.274;9.500;2022-10-17T08:24:09;16.40;99.90
15239;DHT22;7722;53.274;9.500;2022-10-17T08:26:36;16.50;99.90
15239;DHT22;7722;53.274;9.500;2022-10-17T08:29:03;16.60;99.90
15239;DHT22;7722;53.274;9.500;2022-10-17T08:31:31;16.60;99.90
15239;DHT22;7722;53.274;9.500;2022-10-17T08:33:58;16.70;99.90
15239;DHT22;7722;53.274;9.500;2022-10-17T08:36:25;16.70;99.90
15239;DHT22;7722;53.274;9.500;2022-10-17T08:38:53;16.80;99.90
15239;DHT22;7722;53.274;9.500;2022-10-17T08:41:34;17.00;99.90
15239;DHT22;7722;53.274;9.500;2022-10-17T08:44:11;17.10;99.90
15239;DHT22;7722;53.274;9.500;2022-10-17T08:46:47;17.10;99.90
15239;DHT22;7722;53.274;9.500;2022-10-17T08:49:22;17.20;99.90
15239;DHT22;7722;53.274;9.500;2022-10-17T08:51:56;17.40;99.90
15239;DHT22;7722;53.274;9.500;2022-10-17T08:54:31;17.50;99.90
15239;DHT22;7722;53.274;9.500;2022-10-17T08:57:01;17.70;99.90
15239;DHT22;7722;53.274;9.500;2022-10-17T08:59:30;17.80;99.90
15239;DHT22;7722;53.274;9.500;2022-10-17T09:02:02;18.00;99.90
15239;DHT22;7722;53.274;9.500;2022-10-17T09:04:45;18.10;99.90
15239;DHT22;7722;53.274;9.500;2022-10-17T09:07:19;18.20;99.90
15239;DHT22;7722;53.274;9.500;2022-10-17T09:09:56;18.50;99.90
15239;DHT22;7722;53.274;9.500;2022-10-17T09:12:30;18.60;99.90
15239;DHT22;7722;53.274;9.500;2022-10-17T09:15:33;18.80;99.90
15239;DHT22;7722;53.274;9.500;2022-10-17T09:18:09;19.00;99.90
15239;DHT22;7722;53.274;9.500;2022-10-17T09:20:40;19.10;99.90
15239;DHT22;7722;53.274;9.500;2022-10-17T09:23:12;19.10;99.90
15239;DHT22;7722;53.274;9.500;2022-10-17T09:25:42;19.20;99.90
15239;DHT22;7722;53.274;9.500;2022-10-17T09:31:53;19.40;99.90
15239;DHT22;7722;53.274;9.500;2022-10-17T09:34:25;19.60;99.90
15239;DHT22;7722;53.274;9.500;2022-10-17T09:36:53;19.60;99.90
15239;DHT22;7722;53.274;9.500;2022-10-17T09:39:22;20.00;99.90
15239;DHT22;7722;53.274;9.500;2022-10-17T09:41:52;20.10;99.90
15239;DHT22;7722;53.274;9.500;2022-10-17T09:44:21;20.20;99.90
15239;DHT22;7722;53.274;9.500;2022-10-17T09:47:05;20.20;99.90
15239;DHT22;7722;53.274;9.500;2022-10-17T09:49:36;20.20;99.90
15239;DHT22;7722;53.274;9.500;2022-10-17T09:52:07;20.20;99.90
15239;DHT22;7722;53.274;9.500;2022-10-17T09:54:41;20.10;99.90
15239;DHT22;7722;53.274;9.500;2022-10-17T09:57:10;20.10;99.90
15239;DHT22;7722;53.274;9.500;2022-10-17T09:59:41;20.10;99.90
15239;DHT22;7722;53.274;9.500;2022-10-17T10:02:15;20.00;99.90
15239;DHT22;7722;53.274;9.500;2022-10-17T10:04:56;20.20;99.90
15239;DHT22;7722;53.274;9.500;2022-10-17T10:07:24;20.20;99.90
15239;DHT22;7722;53.274;9.500;2022-10-17T10:09:52;20.50;99.90
15239;DHT22;7722;53.274;9.500;2022-10-17T10:12:21;20.70;99.90
15239;DHT22;7722;53.274;9.500;2022-10-17T10:14:48;20.70;99.90
15239;DHT22;7722;53.274;9.500;2022-10-17T10:17:36;20.70;99.90
15239;DHT22;7722;53.274;9.500;2022-10-17T10:20:27;20.70;99.90
15239;DHT22;7722;53.274;9.500;2022-10-17T10:23:05;20.90;99.90
15239;DHT22;7722;53.274;9.500;2022-10-17T10:25:32;20.90;99.90
15239;DHT22;7722;53.274;9.500;2022-10-17T10:28:00;20.90;99.90
15239;DHT22;7722;53.274;9.500;2022-10-17T10:30:29;20.80;99.90
15239;DHT22;7722;53.274;9.500;2022-10-17T10:32:58;20.70;99.90
15239;DHT22;7722;53.274;9.500;2022-10-17T10:35:31;20.70;99.90
15239;DHT22;7722;53.274;9.500;2022-10-17T10:38:00;20.70;99.90
15239;DHT22;7722;53.274;9.500;2022-10-17T10:40:30;20.70;99.90
15239;DHT22;7722;53.274;9.500;2022-10-17T10:43:00;20.60;99.90
15239;DHT22;7722;53.274;9.500;2022-10-17T10:45:28;20.50;99.90
15239;DHT22;7722;53.274;9.500;2022-10-17T10:48:18;20.40;99.90
15239;DHT22;7722;53.274;9.500;2022-10-17T10:50:49;20.30;99.90
15239;DHT22;7722;53.274;9.500;2022-10-17T10:53:30;20.30;99.90
15239;DHT22;7722;53.274;9.500;2022-10-17T10:55:59;20.20;99.90
15239;DHT22;7722;53.274;9.500;2022-10-17T10:58:49;20.10;99.90
15239;DHT22;7722;53.274;9.500;2022-10-17T11:01:22;20.20;99.90
15239;DHT22;7722;53.274;9.500;2022-10-17T11:04:05;20.20;99.90
15239;DHT22;7722;53.274;9.500;2022-10-17T11:06:36;20.20;99.90
15239;DHT22;7722;53.274;9.500;2022-10-17T11:09:17;20.20;99.90
15239;DHT22;7722;53.274;9.500;2022-10-17T11:11:51;20.20;99.90
15239;DHT22;7722;53.274;9.500;2022-10-17T11:14:27;20.30;99.90
15239;DHT22;7722;53.274;9.500;2022-10-17T11:17:09;20.40;99.90
15239;DHT22;7722;53.274;9.500;2022-10-17T11:19:43;20.20;99.90
15239;DHT22;7722;53.274;9.500;2022-10-17T11:22:18;20.20;99.90
15239;DHT22;7722;53.274;9.500;2022-10-17T11:24:51;20.10;99.90
15239;DHT22;7722;53.274;9.500;2022-10-17T11:27:22;20.10;99.90
15239;DHT22;7722;53.274;9.500;2022-10-17T11:29:49;20.10;99.90
15239;DHT22;7722;53.274;9.500;2022-10-17T11:32:20;20.00;99.90
15239;DHT22;7722;53.274;9.500;2022-10-17T11:34:51;19.90;99.90
15239;DHT22;7722;53.274;9.500;2022-10-17T11:37:23;19.80;99.90
15239;DHT22;7722;53.274;9.500;2022-10-17T11:39:54;19.70;99.90
15239;DHT22;7722;53.274;9.500;2022-10-17T11:42:26;19.60;99.90
15239;DHT22;7722;53.274;9.500;2022-10-17T11:44:58;19.40;99.90
15239;DHT22;7722;53.274;9.500;2022-10-17T11:47:34;19.30;99.90
15239;DHT22;7722;53.274;9.500;2022-10-17T11:50:06;19.30;99.90
15239;DHT22;7722;53.274;9.500;2022-10-17T11:52:40;19.10;99.90
15239;DHT22;7722;53.274;9.500;2022-10-17T11:55:13;19.10;99.90
15239;DHT22;7722;53.274;9.500;2022-10-17T11:57:53;19.00;99.90
15239;DHT22;7722;53.274;9.500;2022-10-17T12:00:26;18.90;99.90
15239;DHT22;7722;53.274;9.500;2022-10-17T12:03:07;19.00;99.90
15239;DHT22;7722;53.274;9.500;2022-10-17T12:05:42;19.00;99.90
15239;DHT22;7722;53.274;9.500;2022-10-17T12:08:16;19.20;99.90
15239;DHT22;7722;53.274;9.500;2022-10-17T12:10:49;19.20;99.90
15239;DHT22;7722;53.274;9.500;2022-10-17T12:13:49;19.20;99.90
15239;DHT22;7722;53.274;9.500;2022-10-17T12:16:45;19.30;99.90
15239;DHT22;7722;53.274;9.500;2022-10-17T12:19:34;19.30;99.90
15239;DHT22;7722;53.274;9.500;2022-10-17T12:22:04;19.40;99.90
15239;DHT22;7722;53.274;9.500;2022-10-17T12:24:36;19.30;99.90
15239;DHT22;7722;53.274;9.500;2022-10-17T12:27:31;19.30;99.90
15239;DHT22;7722;53.274;9.500;2022-10-17T12:30:00;19.20;99.90
15239;DHT22;7722;53.274;9.500;2022-10-17T12:32:28;19.00;99.90
15239;DHT22;7722;53.274;9.500;2022-10-17T12:34:56;19.00;99.90
15239;DHT22;7722;53.274;9.500;2022-10-17T12:40:54;18.80;99.90
15239;DHT22;7722;53.274;9.500;2022-10-17T12:43:52;18.80;99.90
15239;DHT22;7722;53.274;9.500;2022-10-17T12:46:46;18.70;99.90
15239;DHT22;7722;53.274;9.500;2022-10-17T12:49:22;18.70;99.90
15239;DHT22;7722;53.274;9.500;2022-10-17T12:52:23;18.50;99.90
15239;DHT22;7722;53.274;9.500;2022-10-17T12:55:05;18.20;99.90
15239;DHT22;7722;53.274;9.500;2022-10-17T12:57:41;18.10;99.90
15239;DHT22;7722;53.274;9.500;2022-10-17T13:00:28;17.90;99.90
15239;DHT22;7722;53.274;9.500;2022-10-17T13:03:04;17.90;99.90
15239;DHT22;7722;53.274;9.500;2022-10-17T13:05:34;17.90;99.90
15239;DHT22;7722;53.274;9.500;2022-10-17T13:08:03;17.90;99.90
15239;DHT22;7722;53.274;9.500;2022-10-17T13:10:33;18.00;99.90
15239;DHT22;7722;53.274;9.500;2022-10-17T13:13:19;18.10;99.90
15239;DHT22;7722;53.274;9.500;2022-10-17T13:15:48;18.00;99.90
15239;DHT22;7722;53.274;9.500;2022-10-17T13:18:21;17.90;99.90
15239;DHT22;7722;53.274;9.500;2022-10-17T13:20:58;17.80;99.90
15239;DHT22;7722;53.274;9.500;2022-10-17T13:23:29;17.80;99.90
15239;DHT22;7722;53.274;9.500;2022-10-17T13:26:12;17.60;99.90
15239;DHT22;7722;53.274;9.500;2022-10-17T13:28:42;17.60;99.90
15239;DHT22;7722;53.274;9.500;2022-10-17T13:31:27;17.50;99.90
15239;DHT22;7722;53.274;9.500;2022-10-17T13:33:56;17.50;99.90
15239;DHT22;7722;53.274;9.500;2022-10-17T13:36:24;17.50;99.90
15239;DHT22;7722;53.274;9.500;2022-10-17T13:38:52;17.50;99.90
15239;DHT22;7722;53.274;9.500;2022-10-17T13:41:24;17.40;99.90
15239;DHT22;7722;53.274;9.500;2022-10-17T13:43:55;17.40;99.90
15239;DHT22;7722;53.274;9.500;2022-10-17T13:46:27;17.40;99.90
15239;DHT22;7722;53.274;9.500;2022-10-17T13:48:56;17.40;99.90
15239;DHT22;7722;53.274;9.500;2022-10-17T13:51:24;17.40;99.90
15239;DHT22;7722;53.274;9.500;2022-10-17T13:53:52;17.40;99.90
15239;DHT22;7722;53.274;9.500;2022-10-17T13:56:20;17.40;99.90
15239;DHT22;7722;53.274;9.500;2022-10-17T13:58:50;17.40;99.90
15239;DHT22;7722;53.274;9.500;2022-10-17T14:01:20;17.30;99.90
15239;DHT22;7722;53.274;9.500;2022-10-17T14:03:47;17.40;99.90
15239;DHT22;7722;53.274;9.500;2022-10-17T14:06:17;17.40;99.90
15239;DHT22;7722;53.274;9.500;2022-10-17T14:08:51;17.40;99.90
15239;DHT22;7722;53.274;9.500;2022-10-17T14:11:32;17.40;99.90
15239;DHT22;7722;53.274;9.500;2022-10-17T14:14:00;17.40;99.90
15239;DHT22;7722;53.274;9.500;2022-10-17T14:16:36;17.40;99.90
15239;DHT22;7722;53.274;9.500;2022-10-17T14:19:05;17.30;99.90
15239;DHT22;7722;53.274;9.500;2022-10-17T14:21:33;17.30;99.90
15239;DHT22;7722;53.274;9.500;2022-10-17T14:24:15;17.30;99.90
15239;DHT22;7722;53.274;9.500;2022-10-17T14:26:51;17.20;99.90
15239;DHT22;7722;53.274;9.500;2022-10-17T14:29:24;17.20;99.90
15239;DHT22;7722;53.274;9.500;2022-10-17T14:32:04;17.20;99.90
15239;DHT22;7722;53.274;9.500;2022-10-17T14:34:35;17.20;99.90
15239;DHT22;7722;53.274;9.500;2022-10-17T14:37:08;17.20;99.90
15239;DHT22;7722;53.274;9.500;2022-10-17T14:39:36;17.20;99.90
15239;DHT22;7722;53.274;9.500;2022-10-17T14:42:03;17.20;99.90
15239;DHT22;7722;53.274;9.500;2022-10-17T14:44:31;17.10;99.90
15239;DHT22;7722;53.274;9.500;2022-10-17T14:47:02;17.20;99.90
15239;DHT22;7722;53.274;9.500;2022-10-17T14:49:36;17.10;99.90
15239;DHT22;7722;53.274;9.500;2022-10-17T14:52:25;17.10;99.90
15239;DHT22;7722;53.274;9.500;2022-10-17T14:54:53;17.10;99.90
15239;DHT22;7722;53.274;9.500;2022-10-17T14:57:40;17.10;99.90
15239;DHT22;7722;53.274;9.500;2022-10-17T15:00:12;17.10;99.90
15239;DHT22;7722;53.274;9.500;2022-10-17T15:02:41;17.10;99.90
15239;DHT22;7722;53.274;9.500;2022-10-17T15:05:08;17.10;99.90
15239;DHT22;7722;53.274;9.500;2022-10-17T15:07:35;17.10;99.90
15239;DHT22;7722;53.274;9.500;2022-10-17T15:10:03;17.10;99.90
15239;DHT22;7722;53.274;9.500;2022-10-17T15:12:30;17.10;99.90
15239;DHT22;7722;53.274;9.500;2022-10-17T15:14:58;17.10;99.90
15239;DHT22;7722;53.274;9.500;2022-10-17T15:17:27;17.00;99.90
15239;DHT22;7722;53.274;9.500;2022-10-17T15:19:57;17.00;99.90
15239;DHT22;7722;53.274;9.500;2022-10-17T15:22:24;17.00;99.90
15239;DHT22;7722;53.274;9.500;2022-10-17T15:24:51;17.00;99.90
15239;DHT22;7722;53.274;9.500;2022-10-17T15:27:20;17.00;99.90
15239;DHT22;7722;53.274;9.500;2022-10-17T15:29:47;16.90;99.90
15239;DHT22;7722;53.274;9.500;2022-10-17T15:32:15;16.90;99.90
15239;DHT22;7722;53.274;9.500;2022-10-17T15:34:42;17.00;99.90
15239;DHT22;7722;53.274;9.500;2022-10-17T15:37:17;16.90;99.90
15239;DHT22;7722;53.274;9.500;2022-10-17T15:39:47;16.90;99.90
15239;DHT22;7722;53.274;9.500;2022-10-17T15:42:18;16.90;99.90
15239;DHT22;7722;53.274;9.500;2022-10-17T15:44:45;16.90;99.90
15239;DHT22;7722;53.274;9.500;2022-10-17T15:47:21;16.90;99.90
15239;DHT22;7722;53.274;9.500;2022-10-17T15:49:49;16.90;99.90
15239;DHT22;7722;53.274;9.500;2022-10-17T15:52:17;16.90;99.90
15239;DHT22;7722;53.274;9.500;2022-10-17T15:54:45;16.80;99.90
15239;DHT22;7722;53.274;9.500;2022-10-17T15:57:15;16.80;99.90
15239;DHT22;7722;53.274;9.500;2022-10-17T15:59:44;16.80;99.90
15239;DHT22;7722;53.274;9.500;2022-10-17T16:02:13;16.80;99.90
15239;DHT22;7722;53.274;9.500;2022-10-17T16:04:40;16.80;99.90
15239;DHT22;7722;53.274;9.500;2022-10-17T16:07:08;16.80;99.90
15239;DHT22;7722;53.274;9.500;2022-10-17T16:09:37;16.70;99.90
15239;DHT22;7722;53.274;9.500;2022-10-17T16:12:05;16.70;99.90
15239;DHT22;7722;53.274;9.500;2022-10-17T16:14:33;16.70;99.90
15239;DHT22;7722;53.274;9.500;2022-10-17T16:17:00;16.70;99.90